sensor_id;sensor_type;location;lat;lon;timestamp;pressure;altitude;pressure_sealevel;temperature;humidity
60212;BME280;46079;48.686;15.598;2022-12-18T00:01:04;101388.47;;;19.70;41.71
60212;BME280;46079;48.686;15.598;2022-12-18T00:03:33;101390.16;;;19.71;41.79
60212;BME280;46079;48.686;15.598;2022-12-18T00:05:59;101385.84;;;19.70;41.75
60212;BME280;46079;48.686;15.598;2022-12-18T00:08:25;101385.00;;;19.70;42.04
60212;BME280;46079;48.686;15.598;2022-12-18T00:10:50;101388.47;;;19.70;41.85
60212;BME280;46079;48.686;15.598;2022-12-18T00:13:15;101394.56;;;19.71;41.94
60212;BME280;46079;48.686;15.598;2022-12-18T00:15:41;101402.44;;;19.71;41.76
60212;BME280;46079;48.686;15.598;2022-12-18T00:18:07;101402.56;;;19.69;41.92
60212;BME280;46079;48.686;15.598;2022-12-18T00:20:37;101403.38;;;19.70;41.84
60212;BME280;46079;48.686;15.598;2022-12-18T00:23:04;101402.56;;;19.69;42.17
60212;BME280;46079;48.686;15.598;2022-12-18T00:25:29;101403.38;;;19.70;42.03
60212;BME280;46079;48.686;15.598;2022-12-18T00:27:55;101413.91;;;19.70;41.96
60212;BME280;46079;48.686;15.598;2022-12-18T00:30:20;101414.81;;;19.69;42.18
60212;BME280;46079;48.686;15.598;2022-12-18T00:32:45;101410.44;;;19.69;42.03
60212;BME280;46079;48.686;15.598;2022-12-18T00:35:11;101412.94;;;19.71;42.14
60212;BME280;46079;48.686;15.598;2022-12-18T00:37:36;101415.69;;;19.69;41.95
60212;BME280;46079;48.686;15.598;2022-12-18T00:40:03;101417.44;;;19.69;42.02
60212;BME280;46079;48.686;15.598;2022-12-18T00:42:28;101421.75;;;19.70;42.01
60212;BME280;46079;48.686;15.598;2022-12-18T00:45:12;101427.03;;;19.70;42.22
60212;BME280;46079;48.686;15.598;2022-12-18T00:47:38;101419.13;;;19.70;42.27
60212;BME280;46079;48.686;15.598;2022-12-18T00:50:03;101428.81;;;19.69;42.37
60212;BME280;46079;48.686;15.598;2022-12-18T00:52:29;101429.66;;;19.70;42.22
60212;BME280;46079;48.686;15.598;2022-12-18T00:54:54;101427.03;;;19.70;42.16
60212;BME280;46079;48.686;15.598;2022-12-18T00:57:20;101427.03;;;19.70;42.21
60212;BME280;46079;48.686;15.598;2022-12-18T00:59:45;101427.94;;;19.69;42.32
60212;BME280;46079;48.686;15.598;2022-12-18T01:02:13;101430.47;;;19.70;42.33
60212;BME280;46079;48.686;15.598;2022-12-18T01:04:39;101436.69;;;19.69;42.40
60212;BME280;46079;48.686;15.598;2022-12-18T01:07:04;101435.81;;;19.69;42.37
60212;BME280;46079;48.686;15.598;2022-12-18T01:09:30;101436.69;;;19.69;42.52
60212;BME280;46079;48.686;15.598;2022-12-18T01:11:55;101442.00;;;19.68;42.50
60212;BME280;46079;48.686;15.598;2022-12-18T01:14:20;101445.41;;;19.70;42.67
60212;BME280;46079;48.686;15.598;2022-12-18T01:16:46;101439.31;;;19.69;42.78
60212;BME280;46079;48.686;15.598;2022-12-18T01:19:11;101445.41;;;19.70;42.81
60212;BME280;46079;48.686;15.598;2022-12-18T01:21:40;101446.22;;;19.70;42.79
60212;BME280;46079;48.686;15.598;2022-12-18T01:24:06;101444.56;;;19.69;42.81
60212;BME280;46079;48.686;15.598;2022-12-18T01:26:31;101438.34;;;19.70;42.80
60212;BME280;46079;48.686;15.598;2022-12-18T01:28:57;101437.53;;;19.70;42.59
60212;BME280;46079;48.686;15.598;2022-12-18T01:31:25;101453.28;;;19.70;42.65
60212;BME280;46079;48.686;15.598;2022-12-18T01:33:51;101450.66;;;19.70;42.74
60212;BME280;46079;48.686;15.598;2022-12-18T01:36:26;101454.09;;;19.70;42.76
60212;BME280;46079;48.686;15.598;2022-12-18T01:38:52;101450.66;;;19.70;42.75
60212;BME280;46079;48.686;15.598;2022-12-18T01:41:21;101464.69;;;19.69;42.77
60212;BME280;46079;48.686;15.598;2022-12-18T01:43:55;101460.19;;;19.71;42.90
60212;BME280;46079;48.686;15.598;2022-12-18T01:46:23;101460.31;;;19.69;42.81
60212;BME280;46079;48.686;15.598;2022-12-18T01:48:53;101461.97;;;19.70;42.90
60212;BME280;46079;48.686;15.598;2022-12-18T01:51:20;101465.56;;;19.69;43.01
60212;BME280;46079;48.686;15.598;2022-12-18T01:53:46;101466.41;;;19.70;42.96
60212;BME280;46079;48.686;15.598;2022-12-18T01:56:17;101460.31;;;19.69;42.98
60212;BME280;46079;48.686;15.598;2022-12-18T01:58:46;101465.56;;;19.69;42.96
60212;BME280;46079;48.686;15.598;2022-12-18T02:01:13;101471.66;;;19.70;43.20
60212;BME280;46079;48.686;15.598;2022-12-18T02:03:43;101465.56;;;19.69;43.10
60212;BME280;46079;48.686;15.598;2022-12-18T02:06:30;101463.78;;;19.70;43.25
60212;BME280;46079;48.686;15.598;2022-12-18T02:09:13;101471.66;;;19.70;43.02
60212;BME280;46079;48.686;15.598;2022-12-18T02:11:49;101480.44;;;19.69;43.25
60212;BME280;46079;48.686;15.598;2022-12-18T02:16:52;101477.81;;;19.69;43.10
60212;BME280;46079;48.686;15.598;2022-12-18T02:22:11;101474.34;;;19.68;43.28
60212;BME280;46079;48.686;15.598;2022-12-18T02:27:47;101482.22;;;19.68;43.08
60212;BME280;46079;48.686;15.598;2022-12-18T02:30:14;101486.63;;;19.68;43.19
60212;BME280;46079;48.686;15.598;2022-12-18T02:32:43;101488.44;;;19.67;43.28
60212;BME280;46079;48.686;15.598;2022-12-18T02:35:16;101488.44;;;19.67;43.04
60212;BME280;46079;48.686;15.598;2022-12-18T02:37:45;101499.78;;;19.68;43.12
60212;BME280;46079;48.686;15.598;2022-12-18T02:40:13;101494.53;;;19.68;42.94
60212;BME280;46079;48.686;15.598;2022-12-18T02:42:40;101498.09;;;19.67;43.10
60212;BME280;46079;48.686;15.598;2022-12-18T02:45:06;101503.34;;;19.67;43.38
60212;BME280;46079;48.686;15.598;2022-12-18T02:47:43;101497.16;;;19.68;43.38
60212;BME280;46079;48.686;15.598;2022-12-18T02:53:06;101512.97;;;19.66;43.08
60212;BME280;46079;48.686;15.598;2022-12-18T02:56:18;101516.53;;;19.65;43.07
60212;BME280;46079;48.686;15.598;2022-12-18T03:01:40;101516.53;;;19.65;43.15
60212;BME280;46079;48.686;15.598;2022-12-18T03:04:26;101515.69;;;19.65;43.17
60212;BME280;46079;48.686;15.598;2022-12-18T03:06:56;101515.75;;;19.63;43.49
60212;BME280;46079;48.686;15.598;2022-12-18T03:09:32;101523.63;;;19.63;43.43
60212;BME280;46079;48.686;15.598;2022-12-18T03:12:07;101521.00;;;19.63;43.17
60212;BME280;46079;48.686;15.598;2022-12-18T03:17:27;101519.25;;;19.64;43.34
60212;BME280;46079;48.686;15.598;2022-12-18T03:19:56;101519.25;;;19.64;43.34
60212;BME280;46079;48.686;15.598;2022-12-18T03:22:24;101514.00;;;19.64;43.67
60212;BME280;46079;48.686;15.598;2022-12-18T03:24:53;101519.25;;;19.64;43.49
60212;BME280;46079;48.686;15.598;2022-12-18T03:27:22;101521.88;;;19.64;43.67
60212;BME280;46079;48.686;15.598;2022-12-18T03:29:56;101526.25;;;19.63;43.50
60212;BME280;46079;48.686;15.598;2022-12-18T03:32:35;101517.53;;;19.63;43.44
60212;BME280;46079;48.686;15.598;2022-12-18T03:35:03;101520.16;;;19.63;43.67
60212;BME280;46079;48.686;15.598;2022-12-18T03:37:30;101522.78;;;19.63;43.64
60212;BME280;46079;48.686;15.598;2022-12-18T03:39:55;101522.78;;;19.63;43.59
60212;BME280;46079;48.686;15.598;2022-12-18T03:42:52;101521.13;;;19.62;43.59
60212;BME280;46079;48.686;15.598;2022-12-18T03:45:26;101528.03;;;19.63;43.66
60212;BME280;46079;48.686;15.598;2022-12-18T03:47:59;101521.13;;;19.62;43.65
60212;BME280;46079;48.686;15.598;2022-12-18T03:50:47;101519.41;;;19.61;43.49
60212;BME280;46079;48.686;15.598;2022-12-18T03:55:47;101531.63;;;19.62;43.50
60212;BME280;46079;48.686;15.598;2022-12-18T03:58:16;101528.16;;;19.61;43.68
60212;BME280;46079;48.686;15.598;2022-12-18T04:00:44;101534.31;;;19.60;43.63
60212;BME280;46079;48.686;15.598;2022-12-18T04:03:10;101528.25;;;19.60;43.56
60212;BME280;46079;48.686;15.598;2022-12-18T04:05:37;101535.28;;;19.59;43.68
60212;BME280;46079;48.686;15.598;2022-12-18T04:08:03;101537.06;;;19.59;43.53
60212;BME280;46079;48.686;15.598;2022-12-18T04:10:29;101552.81;;;19.59;43.57
60212;BME280;46079;48.686;15.598;2022-12-18T04:12:56;101548.47;;;19.58;43.61
60212;BME280;46079;48.686;15.598;2022-12-18T04:15:21;101543.22;;;19.58;43.45
60212;BME280;46079;48.686;15.598;2022-12-18T04:17:48;101551.97;;;19.58;43.56
60212;BME280;46079;48.686;15.598;2022-12-18T04:20:14;101556.34;;;19.58;43.55
60212;BME280;46079;48.686;15.598;2022-12-18T04:22:39;101556.34;;;19.58;43.53
60212;BME280;46079;48.686;15.598;2022-12-18T04:25:05;101552.06;;;19.57;43.74
60212;BME280;46079;48.686;15.598;2022-12-18T04:27:31;101556.34;;;19.58;43.67
60212;BME280;46079;48.686;15.598;2022-12-18T04:29:56;101571.25;;;19.57;43.74
60212;BME280;46079;48.686;15.598;2022-12-18T04:32:21;101570.44;;;19.57;43.51
60212;BME280;46079;48.686;15.598;2022-12-18T04:34:47;101573.88;;;19.57;43.53
60212;BME280;46079;48.686;15.598;2022-12-18T04:37:13;101573.06;;;19.57;43.76
60212;BME280;46079;48.686;15.598;2022-12-18T04:39:38;101579.97;;;19.58;43.61
60212;BME280;46079;48.686;15.598;2022-12-18T04:42:04;101581.75;;;19.57;43.60
60212;BME280;46079;48.686;15.598;2022-12-18T04:44:29;101581.75;;;19.57;43.91
60212;BME280;46079;48.686;15.598;2022-12-18T04:46:55;101582.59;;;19.58;43.74
60212;BME280;46079;48.686;15.598;2022-12-18T04:49:21;101582.53;;;19.59;43.64
60212;BME280;46079;48.686;15.598;2022-12-18T04:51:46;101578.28;;;19.57;43.82
60212;BME280;46079;48.686;15.598;2022-12-18T04:54:11;101584.38;;;19.57;43.76
60212;BME280;46079;48.686;15.598;2022-12-18T04:56:37;101597.50;;;19.57;43.89
60212;BME280;46079;48.686;15.598;2022-12-18T04:59:02;101595.72;;;19.58;43.81
60212;BME280;46079;48.686;15.598;2022-12-18T05:01:28;101600.06;;;19.59;43.80
60212;BME280;46079;48.686;15.598;2022-12-18T05:03:53;101599.28;;;19.57;43.69
60212;BME280;46079;48.686;15.598;2022-12-18T05:06:18;101611.47;;;19.58;43.74
60212;BME280;46079;48.686;15.598;2022-12-18T05:08:44;101615.88;;;19.57;43.92
60212;BME280;46079;48.686;15.598;2022-12-18T05:11:11;101624.59;;;19.58;43.89
60212;BME280;46079;48.686;15.598;2022-12-18T05:13:39;101616.72;;;19.58;43.67
60212;BME280;46079;48.686;15.598;2022-12-18T05:16:04;101625.47;;;19.58;43.85
60212;BME280;46079;48.686;15.598;2022-12-18T05:18:30;101624.59;;;19.58;43.77
60212;BME280;46079;48.686;15.598;2022-12-18T05:20:56;101622.91;;;19.57;43.75
60212;BME280;46079;48.686;15.598;2022-12-18T05:23:22;101629.84;;;19.58;43.92
60212;BME280;46079;48.686;15.598;2022-12-18T05:25:55;101626.38;;;19.57;43.68
60212;BME280;46079;48.686;15.598;2022-12-18T05:28:21;101623.75;;;19.57;43.95
60212;BME280;46079;48.686;15.598;2022-12-18T05:30:48;101620.28;;;19.57;43.68
60212;BME280;46079;48.686;15.598;2022-12-18T05:33:14;101617.66;;;19.57;43.79
60212;BME280;46079;48.686;15.598;2022-12-18T05:35:40;101624.59;;;19.58;43.92
60212;BME280;46079;48.686;15.598;2022-12-18T05:38:05;101629.00;;;19.57;43.64
60212;BME280;46079;48.686;15.598;2022-12-18T05:40:30;101637.72;;;19.58;43.67
60212;BME280;46079;48.686;15.598;2022-12-18T05:42:56;101635.09;;;19.58;43.74
60212;BME280;46079;48.686;15.598;2022-12-18T05:45:21;101632.47;;;19.58;43.57
60212;BME280;46079;48.686;15.598;2022-12-18T05:47:47;101633.41;;;19.57;43.85
60212;BME280;46079;48.686;15.598;2022-12-18T05:50:12;101629.00;;;19.57;43.71
60212;BME280;46079;48.686;15.598;2022-12-18T05:52:38;101639.50;;;19.57;43.65
60212;BME280;46079;48.686;15.598;2022-12-18T05:55:03;101642.97;;;19.58;43.92
60212;BME280;46079;48.686;15.598;2022-12-18T05:57:30;101635.97;;;19.58;43.95
60212;BME280;46079;48.686;15.598;2022-12-18T05:59:55;101639.44;;;19.59;43.76
60212;BME280;46079;48.686;15.598;2022-12-18T06:02:21;101643.72;;;19.60;43.92
60212;BME280;46079;48.686;15.598;2022-12-18T06:04:46;101638.59;;;19.58;43.88
60212;BME280;46079;48.686;15.598;2022-12-18T06:07:12;101642.91;;;19.59;43.73
60212;BME280;46079;48.686;15.598;2022-12-18T06:09:37;101647.19;;;19.60;43.92
60212;BME280;46079;48.686;15.598;2022-12-18T06:12:03;101648.16;;;19.59;43.90
60212;BME280;46079;48.686;15.598;2022-12-18T06:14:29;101660.31;;;19.60;43.81
60212;BME280;46079;48.686;15.598;2022-12-18T06:16:54;101664.72;;;19.60;43.98
60212;BME280;46079;48.686;15.598;2022-12-18T06:19:19;101653.41;;;19.59;43.69
60212;BME280;46079;48.686;15.598;2022-12-18T06:21:45;101657.63;;;19.62;43.99
60212;BME280;46079;48.686;15.598;2022-12-18T06:24:11;101668.13;;;19.62;43.94
60212;BME280;46079;48.686;15.598;2022-12-18T06:26:37;101679.47;;;19.62;43.70
60212;BME280;46079;48.686;15.598;2022-12-18T06:29:03;101677.78;;;19.61;42.58
60212;BME280;46079;48.686;15.598;2022-12-18T06:31:29;101677.78;;;19.61;42.98
60212;BME280;46079;48.686;15.598;2022-12-18T06:33:54;101690.91;;;19.61;43.31
60212;BME280;46079;48.686;15.598;2022-12-18T06:36:19;101689.13;;;19.62;43.62
60212;BME280;46079;48.686;15.598;2022-12-18T06:38:46;101696.06;;;19.63;43.58
60212;BME280;46079;48.686;15.598;2022-12-18T06:41:17;101701.31;;;19.63;43.86
60212;BME280;46079;48.686;15.598;2022-12-18T06:43:43;101689.00;;;19.63;43.67
60212;BME280;46079;48.686;15.598;2022-12-18T06:46:09;101687.25;;;19.64;43.74
60212;BME280;46079;48.686;15.598;2022-12-18T06:48:34;101688.94;;;19.65;43.62
60212;BME280;46079;48.686;15.598;2022-12-18T06:51:00;101688.03;;;19.66;43.62
60212;BME280;46079;48.686;15.598;2022-12-18T06:53:26;101691.56;;;19.65;43.57
60212;BME280;46079;48.686;15.598;2022-12-18T06:55:51;101700.28;;;19.65;43.76
60212;BME280;46079;48.686;15.598;2022-12-18T06:58:17;101712.50;;;19.66;43.59
60212;BME280;46079;48.686;15.598;2022-12-18T07:00:42;101717.75;;;19.66;43.63
60212;BME280;46079;48.686;15.598;2022-12-18T07:03:07;101717.75;;;19.66;43.67
60212;BME280;46079;48.686;15.598;2022-12-18T07:05:33;101716.00;;;19.67;43.76
60212;BME280;46079;48.686;15.598;2022-12-18T07:07:58;101722.06;;;19.67;43.86
60212;BME280;46079;48.686;15.598;2022-12-18T07:10:24;101724.69;;;19.67;44.00
60212;BME280;46079;48.686;15.598;2022-12-18T07:12:49;101730.78;;;19.68;43.81
60212;BME280;46079;48.686;15.598;2022-12-18T07:15:15;101741.22;;;19.69;43.93
60212;BME280;46079;48.686;15.598;2022-12-18T07:17:40;101737.72;;;19.69;43.60
60212;BME280;46079;48.686;15.598;2022-12-18T07:20:06;101742.13;;;19.68;43.71
60212;BME280;46079;48.686;15.598;2022-12-18T07:22:32;101742.97;;;19.69;43.81
60212;BME280;46079;48.686;15.598;2022-12-18T07:24:58;101749.09;;;19.69;43.67
60212;BME280;46079;48.686;15.598;2022-12-18T07:27:23;101748.06;;;19.72;43.96
60212;BME280;46079;48.686;15.598;2022-12-18T07:29:49;101750.78;;;19.70;43.89
60212;BME280;46079;48.686;15.598;2022-12-18T07:32:14;101759.50;;;19.71;43.80
60212;BME280;46079;48.686;15.598;2022-12-18T07:34:40;101759.41;;;19.72;43.87
60212;BME280;46079;48.686;15.598;2022-12-18T07:37:05;101758.56;;;19.72;43.91
60212;BME280;46079;48.686;15.598;2022-12-18T07:39:31;101764.66;;;19.72;43.74
60212;BME280;46079;48.686;15.598;2022-12-18T07:41:56;101763.81;;;19.72;43.83
60212;BME280;46079;48.686;15.598;2022-12-18T07:44:40;101775.16;;;19.72;44.11
60212;BME280;46079;48.686;15.598;2022-12-18T07:47:05;101774.22;;;19.73;43.64
60212;BME280;46079;48.686;15.598;2022-12-18T07:49:31;101775.06;;;19.74;43.86
60212;BME280;46079;48.686;15.598;2022-12-18T07:51:57;101784.66;;;19.75;44.05
60212;BME280;46079;48.686;15.598;2022-12-18T07:54:23;101792.53;;;19.75;44.06
60212;BME280;46079;48.686;15.598;2022-12-18T07:56:50;101795.16;;;19.75;44.02
60212;BME280;46079;48.686;15.598;2022-12-18T07:59:15;101802.09;;;19.76;43.92
60212;BME280;46079;48.686;15.598;2022-12-18T08:01:41;101794.22;;;19.76;44.12
60212;BME280;46079;48.686;15.598;2022-12-18T08:04:06;101795.06;;;19.76;44.08
60212;BME280;46079;48.686;15.598;2022-12-18T08:06:31;101809.00;;;19.77;44.17
60212;BME280;46079;48.686;15.598;2022-12-18T08:08:57;101802.00;;;19.77;44.17
60212;BME280;46079;48.686;15.598;2022-12-18T08:11:24;101807.25;;;19.77;44.14
60212;BME280;46079;48.686;15.598;2022-12-18T08:13:50;101810.72;;;19.78;43.99
60212;BME280;46079;48.686;15.598;2022-12-18T08:16:17;101812.41;;;19.79;44.24
60212;BME280;46079;48.686;15.598;2022-12-18T08:18:43;101813.25;;;19.80;44.14
60212;BME280;46079;48.686;15.598;2022-12-18T08:21:16;101814.97;;;19.81;43.92
60212;BME280;46079;48.686;15.598;2022-12-18T08:23:43;101819.38;;;19.80;43.82
60212;BME280;46079;48.686;15.598;2022-12-18T08:26:10;101819.38;;;19.80;43.99
60212;BME280;46079;48.686;15.598;2022-12-18T08:28:35;101812.34;;;19.81;44.02
60212;BME280;46079;48.686;15.598;2022-12-18T08:31:01;101816.66;;;19.82;43.85
60212;BME280;46079;48.686;15.598;2022-12-18T08:33:26;101814.84;;;19.82;43.85
60212;BME280;46079;48.686;15.598;2022-12-18T08:35:52;101808.75;;;19.82;44.01
60212;BME280;46079;48.686;15.598;2022-12-18T08:38:17;101813.06;;;19.83;43.02
60212;BME280;46079;48.686;15.598;2022-12-18T08:40:43;101818.31;;;19.83;42.73
60212;BME280;46079;48.686;15.598;2022-12-18T08:43:11;101812.16;;;19.84;42.53
60212;BME280;46079;48.686;15.598;2022-12-18T08:45:56;101814.78;;;19.84;42.91
60212;BME280;46079;48.686;15.598;2022-12-18T08:48:21;101820.88;;;19.84;42.62
60212;BME280;46079;48.686;15.598;2022-12-18T08:50:55;101813.00;;;19.84;42.41
60212;BME280;46079;48.686;15.598;2022-12-18T08:53:20;101815.63;;;19.84;42.66
60212;BME280;46079;48.686;15.598;2022-12-18T08:55:45;101819.84;;;19.87;42.44
60212;BME280;46079;48.686;15.598;2022-12-18T08:58:11;101821.53;;;19.88;42.56
60212;BME280;46079;48.686;15.598;2022-12-18T09:00:36;101830.28;;;19.88;42.54
60212;BME280;46079;48.686;15.598;2022-12-18T09:03:02;101831.19;;;19.87;42.41
60212;BME280;46079;48.686;15.598;2022-12-18T09:05:27;101830.28;;;19.88;42.39
60212;BME280;46079;48.686;15.598;2022-12-18T09:07:52;101826.78;;;19.88;42.37
60212;BME280;46079;48.686;15.598;2022-12-18T09:10:18;101836.38;;;19.89;42.35
60212;BME280;46079;48.686;15.598;2022-12-18T09:12:43;101826.13;;;19.84;38.45
60212;BME280;46079;48.686;15.598;2022-12-18T09:15:09;101831.66;;;19.64;33.50
60212;BME280;46079;48.686;15.598;2022-12-18T09:17:35;101846.56;;;19.31;31.27
60212;BME280;46079;48.686;15.598;2022-12-18T09:20:00;101833.66;;;18.95;30.13
60212;BME280;46079;48.686;15.598;2022-12-18T09:22:25;101840.44;;;18.64;29.65
60212;BME280;46079;48.686;15.598;2022-12-18T09:24:51;101841.81;;;18.38;30.52
60212;BME280;46079;48.686;15.598;2022-12-18T09:27:16;101848.13;;;18.34;32.34
60212;BME280;46079;48.686;15.598;2022-12-18T09:29:42;101852.06;;;18.43;34.36
60212;BME280;46079;48.686;15.598;2022-12-18T09:32:07;101849.66;;;18.56;36.85
60212;BME280;46079;48.686;15.598;2022-12-18T09:34:32;101843.69;;;18.70;38.00
60212;BME280;46079;48.686;15.598;2022-12-18T09:36:58;101842.31;;;18.80;38.37
60212;BME280;46079;48.686;15.598;2022-12-18T09:39:23;101850.47;;;18.91;38.64
60212;BME280;46079;48.686;15.598;2022-12-18T09:41:53;101834.22;;;19.00;38.77
60212;BME280;46079;48.686;15.598;2022-12-18T09:44:23;101840.00;;;19.07;38.79
60212;BME280;46079;48.686;15.598;2022-12-18T09:46:55;101840.50;;;19.14;39.21
60212;BME280;46079;48.686;15.598;2022-12-18T09:49:25;101841.13;;;19.19;39.37
60212;BME280;46079;48.686;15.598;2022-12-18T09:52:00;101833.84;;;19.24;39.62
60212;BME280;46079;48.686;15.598;2022-12-18T09:54:42;101833.59;;;19.28;39.84
60212;BME280;46079;48.686;15.598;2022-12-18T09:57:20;101834.28;;;19.32;39.92
60212;BME280;46079;48.686;15.598;2022-12-18T09:59:53;101823.59;;;19.35;40.25
60212;BME280;46079;48.686;15.598;2022-12-18T10:02:22;101833.94;;;19.38;40.07
60212;BME280;46079;48.686;15.598;2022-12-18T10:05:02;101822.41;;;19.41;40.13
60212;BME280;46079;48.686;15.598;2022-12-18T10:13:54;101822.94;;;19.47;40.41
60212;BME280;46079;48.686;15.598;2022-12-18T10:16:13;101809.72;;;19.49;40.48
60212;BME280;46079;48.686;15.598;2022-12-18T10:21:34;101818.19;;;19.54;40.74
60212;BME280;46079;48.686;15.598;2022-12-18T10:24:33;101818.09;;;19.55;40.74
60212;BME280;46079;48.686;15.598;2022-12-18T10:27:12;101807.50;;;19.57;40.70
60212;BME280;46079;48.686;15.598;2022-12-18T10:29:39;101810.97;;;19.58;40.64
60212;BME280;46079;48.686;15.598;2022-12-18T10:32:04;101806.59;;;19.58;40.83
60212;BME280;46079;48.686;15.598;2022-12-18T10:34:30;101809.94;;;19.60;40.56
60212;BME280;46079;48.686;15.598;2022-12-18T10:36:55;101808.16;;;19.61;40.79
60212;BME280;46079;48.686;15.598;2022-12-18T10:39:24;101810.78;;;19.61;40.83
60212;BME280;46079;48.686;15.598;2022-12-18T10:41:51;101811.56;;;19.63;40.76
60212;BME280;46079;48.686;15.598;2022-12-18T10:44:21;101813.28;;;19.64;40.55
60212;BME280;46079;48.686;15.598;2022-12-18T10:46:49;101810.66;;;19.64;40.99
60212;BME280;46079;48.686;15.598;2022-12-18T10:49:31;101797.53;;;19.64;40.72
60212;BME280;46079;48.686;15.598;2022-12-18T10:52:18;101804.38;;;19.66;40.84
60212;BME280;46079;48.686;15.598;2022-12-18T10:54:50;101805.25;;;19.67;40.80
60212;BME280;46079;48.686;15.598;2022-12-18T10:57:19;101792.13;;;19.67;40.77
60212;BME280;46079;48.686;15.598;2022-12-18T10:59:56;101791.19;;;19.68;40.81
60212;BME280;46079;48.686;15.598;2022-12-18T11:02:28;101788.56;;;19.68;40.75
60212;BME280;46079;48.686;15.598;2022-12-18T11:04:59;101790.22;;;19.69;40.64
60212;BME280;46079;48.686;15.598;2022-12-18T11:07:25;101791.94;;;19.70;40.85
60212;BME280;46079;48.686;15.598;2022-12-18T11:10:16;101794.56;;;19.70;40.63
60212;BME280;46079;48.686;15.598;2022-12-18T11:12:42;101795.41;;;19.70;41.12
60212;BME280;46079;48.686;15.598;2022-12-18T11:15:16;101791.84;;;19.71;40.97
60212;BME280;46079;48.686;15.598;2022-12-18T11:17:42;101780.41;;;19.72;41.00
60212;BME280;46079;48.686;15.598;2022-12-18T11:23:05;101769.91;;;19.72;40.79
60212;BME280;46079;48.686;15.598;2022-12-18T11:25:36;101773.38;;;19.73;41.00
60212;BME280;46079;48.686;15.598;2022-12-18T11:28:04;101782.09;;;19.73;41.01
60212;BME280;46079;48.686;15.598;2022-12-18T11:30:35;101789.03;;;19.74;40.99
60212;BME280;46079;48.686;15.598;2022-12-18T11:33:18;101789.03;;;19.74;40.93
60212;BME280;46079;48.686;15.598;2022-12-18T11:36:00;101798.63;;;19.75;41.10
60212;BME280;46079;48.686;15.598;2022-12-18T11:38:36;101796.00;;;19.75;41.39
60212;BME280;46079;48.686;15.598;2022-12-18T11:41:09;101795.88;;;19.77;41.42
60212;BME280;46079;48.686;15.598;2022-12-18T11:43:53;101782.75;;;19.77;41.52
60212;BME280;46079;48.686;15.598;2022-12-18T11:46:27;101782.75;;;19.77;41.57
60212;BME280;46079;48.686;15.598;2022-12-18T11:49:10;101781.91;;;19.76;41.42
60212;BME280;46079;48.686;15.598;2022-12-18T11:51:42;101784.47;;;19.78;41.39
60212;BME280;46079;48.686;15.598;2022-12-18T11:54:17;101784.47;;;19.78;41.53
60212;BME280;46079;48.686;15.598;2022-12-18T12:05:55;101767.78;;;19.79;41.93
60212;BME280;46079;48.686;15.598;2022-12-18T12:08:31;101765.91;;;19.81;41.81
60212;BME280;46079;48.686;15.598;2022-12-18T12:16:37;101770.03;;;19.85;42.39
60212;BME280;46079;48.686;15.598;2022-12-18T12:19:15;101776.06;;;19.87;42.72
60212;BME280;46079;48.686;15.598;2022-12-18T12:22:10;101783.75;;;19.90;42.74
60212;BME280;46079;48.686;15.598;2022-12-18T12:24:49;101776.72;;;19.91;42.94
60212;BME280;46079;48.686;15.598;2022-12-18T12:27:31;101767.81;;;19.93;43.04
60212;BME280;46079;48.686;15.598;2022-12-18T12:30:12;101761.63;;;19.94;43.39
60212;BME280;46079;48.686;15.598;2022-12-18T12:38:33;101764.84;;;19.99;43.91
60212;BME280;46079;48.686;15.598;2022-12-18T12:41:04;101760.31;;;20.02;44.40
60212;BME280;46079;48.686;15.598;2022-12-18T12:46:03;101759.41;;;20.03;45.40
60212;BME280;46079;48.686;15.598;2022-12-18T12:51:03;101746.94;;;20.06;46.72
60212;BME280;46079;48.686;15.598;2022-12-18T12:53:35;101751.16;;;20.09;47.06
60212;BME280;46079;48.686;15.598;2022-12-18T12:56:03;101757.25;;;20.09;46.48
60212;BME280;46079;48.686;15.598;2022-12-18T13:09:00;101762.22;;;20.14;49.22
60212;BME280;46079;48.686;15.598;2022-12-18T13:11:46;101768.25;;;20.16;49.81
60212;BME280;46079;48.686;15.598;2022-12-18T13:14:35;101769.09;;;20.16;49.74
60212;BME280;46079;48.686;15.598;2022-12-18T13:17:33;101763.00;;;20.16;48.78
60212;BME280;46079;48.686;15.598;2022-12-18T13:20:07;101767.31;;;20.17;48.54
60212;BME280;46079;48.686;15.598;2022-12-18T13:22:45;101783.00;;;20.18;48.21
60212;BME280;46079;48.686;15.598;2022-12-18T13:25:34;101785.50;;;20.20;48.21
60212;BME280;46079;48.686;15.598;2022-12-18T13:28:13;101791.53;;;20.22;48.45
60212;BME280;46079;48.686;15.598;2022-12-18T13:30:48;101787.13;;;20.23;48.70
60212;BME280;46079;48.686;15.598;2022-12-18T13:35:41;101788.06;;;20.21;47.36
60212;BME280;46079;48.686;15.598;2022-12-18T13:43:37;101783.53;;;20.24;49.34
60212;BME280;46079;48.686;15.598;2022-12-18T13:49:06;101797.44;;;20.26;48.78
60212;BME280;46079;48.686;15.598;2022-12-18T13:51:46;101798.19;;;20.28;49.33
60212;BME280;46079;48.686;15.598;2022-12-18T13:54:28;101805.13;;;20.29;48.59
60212;BME280;46079;48.686;15.598;2022-12-18T13:56:56;101795.47;;;20.29;49.17
60212;BME280;46079;48.686;15.598;2022-12-18T13:59:38;101802.44;;;20.30;49.09
60212;BME280;46079;48.686;15.598;2022-12-18T14:02:16;101795.47;;;20.29;48.46
60212;BME280;46079;48.686;15.598;2022-12-18T14:04:44;101796.34;;;20.30;47.18
60212;BME280;46079;48.686;15.598;2022-12-18T14:07:13;101802.41;;;20.16;40.61
60212;BME280;46079;48.686;15.598;2022-12-18T14:09:49;101800.03;;;19.81;36.70